sensor_id;sensor_type;location;lat;lon;timestamp;P1;durP1;ratioP1;P2;durP2;ratioP2
2035;SDS011;23642;42.658;23.350;2023-07-24T00:00:28;107.10;;;100.50;;
2035;SDS011;23642;42.658;23.350;2023-07-24T00:02:55;105.60;;;99.00;;
2035;SDS011;23642;42.658;23.350;2023-07-24T00:05:23;104.47;;;97.90;;
2035;SDS011;23642;42.658;23.350;2023-07-24T00:07:50;109.53;;;102.50;;
2035;SDS011;23642;42.658;23.350;2023-07-24T00:10:17;109.13;;;102.10;;
2035;SDS011;23642;42.658;23.350;2023-07-24T00:12:45;107.10;;;100.03;;
2035;SDS011;23642;42.658;23.350;2023-07-24T00:15:12;108.63;;;101.83;;
2035;SDS011;23642;42.658;23.350;2023-07-24T00:17:39;108.17;;;101.37;;
2035;SDS011;23642;42.658;23.350;2023-07-24T00:20:06;106.77;;;100.10;;
2035;SDS011;23642;42.658;23.350;2023-07-24T00:22:35;109.17;;;102.47;;
2035;SDS011;23642;42.658;23.350;2023-07-24T00:25:02;107.50;;;100.67;;
2035;SDS011;23642;42.658;23.350;2023-07-24T00:27:34;109.10;;;102.13;;
2035;SDS011;23642;42.658;23.350;2023-07-24T00:30:01;105.63;;;98.90;;
2035;SDS011;23642;42.658;23.350;2023-07-24T00:32:28;109.00;;;102.20;;
2035;SDS011;23642;42.658;23.350;2023-07-24T00:34:58;108.07;;;101.37;;
2035;SDS011;23642;42.658;23.350;2023-07-24T00:37:25;105.47;;;99.00;;
2035;SDS011;23642;42.658;23.350;2023-07-24T00:39:53;108.93;;;102.13;;
2035;SDS011;23642;42.658;23.350;2023-07-24T00:42:23;106.47;;;99.77;;
2035;SDS011;23642;42.658;23.350;2023-07-24T00:44:50;104.57;;;97.97;;
2035;SDS011;23642;42.658;23.350;2023-07-24T00:47:17;110.73;;;103.70;;
2035;SDS011;23642;42.658;23.350;2023-07-24T00:49:48;107.17;;;100.47;;
2035;SDS011;23642;42.658;23.350;2023-07-24T00:52:17;108.90;;;102.17;;
2035;SDS011;23642;42.658;23.350;2023-07-24T00:54:44;107.97;;;101.27;;
2035;SDS011;23642;42.658;23.350;2023-07-24T00:57:14;108.13;;;101.33;;
2035;SDS011;23642;42.658;23.350;2023-07-24T00:59:41;106.00;;;99.40;;
2035;SDS011;23642;42.658;23.350;2023-07-24T01:02:12;107.30;;;100.33;;
2035;SDS011;23642;42.658;23.350;2023-07-24T01:04:40;108.10;;;101.20;;
2035;SDS011;23642;42.658;23.350;2023-07-24T01:07:09;108.37;;;101.57;;
2035;SDS011;23642;42.658;23.350;2023-07-24T01:09:42;107.43;;;100.73;;
2035;SDS011;23642;42.658;23.350;2023-07-24T01:12:10;105.10;;;98.40;;
2035;SDS011;23642;42.658;23.350;2023-07-24T01:14:58;105.60;;;98.90;;
2035;SDS011;23642;42.658;23.350;2023-07-24T01:17:32;108.37;;;101.30;;
2035;SDS011;23642;42.658;23.350;2023-07-24T01:20:05;107.60;;;100.73;;
2035;SDS011;23642;42.658;23.350;2023-07-24T01:22:44;105.83;;;99.20;;
2035;SDS011;23642;42.658;23.350;2023-07-24T01:25:27;107.23;;;100.43;;
2035;SDS011;23642;42.658;23.350;2023-07-24T01:28:05;105.90;;;99.10;;
2035;SDS011;23642;42.658;23.350;2023-07-24T01:30:33;102.63;;;95.77;;
2035;SDS011;23642;42.658;23.350;2023-07-24T01:33:01;107.33;;;100.33;;
2035;SDS011;23642;42.658;23.350;2023-07-24T01:35:28;109.13;;;102.10;;
2035;SDS011;23642;42.658;23.350;2023-07-24T01:37:56;107.90;;;100.80;;
2035;SDS011;23642;42.658;23.350;2023-07-24T01:40:25;105.10;;;98.60;;
2035;SDS011;23642;42.658;23.350;2023-07-24T01:42:52;104.57;;;97.77;;
2035;SDS011;23642;42.658;23.350;2023-07-24T01:45:20;105.90;;;99.23;;
2035;SDS011;23642;42.658;23.350;2023-07-24T01:47:48;107.07;;;100.20;;
2035;SDS011;23642;42.658;23.350;2023-07-24T01:50:15;105.27;;;98.67;;
2035;SDS011;23642;42.658;23.350;2023-07-24T01:52:42;106.70;;;99.87;;
2035;SDS011;23642;42.658;23.350;2023-07-24T01:55:10;108.00;;;100.97;;
2035;SDS011;23642;42.658;23.350;2023-07-24T01:57:37;105.03;;;98.50;;
2035;SDS011;23642;42.658;23.350;2023-07-24T02:00:04;105.40;;;98.70;;
2035;SDS011;23642;42.658;23.350;2023-07-24T02:02:47;108.33;;;101.53;;
2035;SDS011;23642;42.658;23.350;2023-07-24T02:05:17;106.80;;;99.97;;
2035;SDS011;23642;42.658;23.350;2023-07-24T02:07:44;105.73;;;99.13;;
2035;SDS011;23642;42.658;23.350;2023-07-24T02:10:13;103.73;;;97.03;;
2035;SDS011;23642;42.658;23.350;2023-07-24T02:12:40;108.13;;;101.17;;
2035;SDS011;23642;42.658;23.350;2023-07-24T02:15:07;106.20;;;99.20;;
2035;SDS011;23642;42.658;23.350;2023-07-24T02:17:34;107.07;;;100.20;;
2035;SDS011;23642;42.658;23.350;2023-07-24T02:20:04;106.73;;;99.77;;
2035;SDS011;23642;42.658;23.350;2023-07-24T02:22:31;107.67;;;100.47;;
2035;SDS011;23642;42.658;23.350;2023-07-24T02:24:59;108.67;;;100.93;;
2035;SDS011;23642;42.658;23.350;2023-07-24T02:27:26;107.70;;;100.40;;
2035;SDS011;23642;42.658;23.350;2023-07-24T02:29:56;108.30;;;101.33;;
2035;SDS011;23642;42.658;23.350;2023-07-24T02:32:23;109.97;;;102.73;;
2035;SDS011;23642;42.658;23.350;2023-07-24T02:34:50;106.43;;;99.20;;
2035;SDS011;23642;42.658;23.350;2023-07-24T02:37:20;107.93;;;100.70;;
2035;SDS011;23642;42.658;23.350;2023-07-24T02:39:47;106.87;;;99.90;;
2035;SDS011;23642;42.658;23.350;2023-07-24T02:42:14;108.30;;;100.80;;
2035;SDS011;23642;42.658;23.350;2023-07-24T02:44:41;108.00;;;101.10;;
2035;SDS011;23642;42.658;23.350;2023-07-24T02:47:08;108.70;;;101.43;;
2035;SDS011;23642;42.658;23.350;2023-07-24T02:49:37;108.43;;;101.47;;
2035;SDS011;23642;42.658;23.350;2023-07-24T02:52:07;112.80;;;105.10;;
2035;SDS011;23642;42.658;23.350;2023-07-24T02:54:37;111.97;;;104.53;;
2035;SDS011;23642;42.658;23.350;2023-07-24T02:57:04;112.27;;;104.97;;
2035;SDS011;23642;42.658;23.350;2023-07-24T02:59:31;108.63;;;101.53;;
2035;SDS011;23642;42.658;23.350;2023-07-24T03:01:59;109.03;;;102.00;;
2035;SDS011;23642;42.658;23.350;2023-07-24T03:04:26;112.93;;;105.83;;
2035;SDS011;23642;42.658;23.350;2023-07-24T03:06:56;108.37;;;101.27;;
2035;SDS011;23642;42.658;23.350;2023-07-24T03:09:22;108.67;;;101.67;;
2035;SDS011;23642;42.658;23.350;2023-07-24T03:11:51;109.97;;;102.63;;
2035;SDS011;23642;42.658;23.350;2023-07-24T03:14:17;108.50;;;101.13;;
2035;SDS011;23642;42.658;23.350;2023-07-24T03:16:44;109.33;;;102.10;;
2035;SDS011;23642;42.658;23.350;2023-07-24T03:19:11;109.70;;;102.40;;
2035;SDS011;23642;42.658;23.350;2023-07-24T03:25:00;110.97;;;103.73;;
2035;SDS011;23642;42.658;23.350;2023-07-24T03:27:28;112.17;;;104.27;;
2035;SDS011;23642;42.658;23.350;2023-07-24T03:29:55;113.53;;;105.83;;
2035;SDS011;23642;42.658;23.350;2023-07-24T03:32:22;111.80;;;104.23;;
2035;SDS011;23642;42.658;23.350;2023-07-24T03:34:49;112.03;;;104.50;;
2035;SDS011;23642;42.658;23.350;2023-07-24T03:37:21;109.57;;;102.23;;
2035;SDS011;23642;42.658;23.350;2023-07-24T03:39:54;107.83;;;100.70;;
2035;SDS011;23642;42.658;23.350;2023-07-24T03:42:24;108.80;;;101.43;;
2035;SDS011;23642;42.658;23.350;2023-07-24T03:44:57;106.13;;;98.93;;
2035;SDS011;23642;42.658;23.350;2023-07-24T03:47:24;109.90;;;102.40;;
2035;SDS011;23642;42.658;23.350;2023-07-24T03:49:51;108.17;;;100.67;;
2035;SDS011;23642;42.658;23.350;2023-07-24T03:52:20;109.50;;;102.30;;
2035;SDS011;23642;42.658;23.350;2023-07-24T03:54:50;105.60;;;98.47;;
2035;SDS011;23642;42.658;23.350;2023-07-24T03:57:20;108.57;;;101.13;;
2035;SDS011;23642;42.658;23.350;2023-07-24T03:59:52;110.10;;;102.57;;
2035;SDS011;23642;42.658;23.350;2023-07-24T04:02:24;110.33;;;102.93;;
2035;SDS011;23642;42.658;23.350;2023-07-24T04:04:54;107.57;;;100.20;;
2035;SDS011;23642;42.658;23.350;2023-07-24T04:07:23;107.17;;;99.87;;
2035;SDS011;23642;42.658;23.350;2023-07-24T04:09:55;104.40;;;97.00;;
2035;SDS011;23642;42.658;23.350;2023-07-24T04:12:22;109.83;;;101.77;;
2035;SDS011;23642;42.658;23.350;2023-07-24T04:14:49;107.10;;;99.43;;
2035;SDS011;23642;42.658;23.350;2023-07-24T04:17:25;110.00;;;102.53;;
2035;SDS011;23642;42.658;23.350;2023-07-24T04:19:52;110.53;;;102.93;;
2035;SDS011;23642;42.658;23.350;2023-07-24T04:22:19;109.03;;;101.53;;
2035;SDS011;23642;42.658;23.350;2023-07-24T04:24:46;110.27;;;102.00;;
2035;SDS011;23642;42.658;23.350;2023-07-24T04:27:14;108.80;;;101.00;;
2035;SDS011;23642;42.658;23.350;2023-07-24T04:29:43;107.50;;;100.00;;
2035;SDS011;23642;42.658;23.350;2023-07-24T04:32:14;110.67;;;102.63;;
2035;SDS011;23642;42.658;23.350;2023-07-24T04:34:51;105.83;;;98.40;;
2035;SDS011;23642;42.658;23.350;2023-07-24T04:37:23;109.07;;;101.27;;
2035;SDS011;23642;42.658;23.350;2023-07-24T04:39:53;108.30;;;100.50;;
2035;SDS011;23642;42.658;23.350;2023-07-24T04:42:25;107.10;;;99.23;;
2035;SDS011;23642;42.658;23.350;2023-07-24T04:44:53;107.93;;;100.40;;
2035;SDS011;23642;42.658;23.350;2023-07-24T04:47:24;104.73;;;97.53;;
2035;SDS011;23642;42.658;23.350;2023-07-24T04:49:56;107.13;;;99.70;;
2035;SDS011;23642;42.658;23.350;2023-07-24T04:52:23;107.87;;;100.07;;
2035;SDS011;23642;42.658;23.350;2023-07-24T04:54:53;105.97;;;98.57;;
2035;SDS011;23642;42.658;23.350;2023-07-24T04:57:20;106.47;;;98.97;;
2035;SDS011;23642;42.658;23.350;2023-07-24T04:59:47;108.17;;;100.67;;
2035;SDS011;23642;42.658;23.350;2023-07-24T05:02:16;105.60;;;98.50;;
2035;SDS011;23642;42.658;23.350;2023-07-24T05:04:43;107.07;;;99.63;;
2035;SDS011;23642;42.658;23.350;2023-07-24T05:07:14;105.87;;;98.57;;
2035;SDS011;23642;42.658;23.350;2023-07-24T05:09:41;107.97;;;100.30;;
2035;SDS011;23642;42.658;23.350;2023-07-24T05:12:13;108.33;;;100.40;;
2035;SDS011;23642;42.658;23.350;2023-07-24T05:14:46;107.07;;;99.63;;
2035;SDS011;23642;42.658;23.350;2023-07-24T05:17:16;107.20;;;99.70;;
2035;SDS011;23642;42.658;23.350;2023-07-24T05:19:45;105.57;;;98.07;;
2035;SDS011;23642;42.658;23.350;2023-07-24T05:22:15;110.87;;;103.03;;
2035;SDS011;23642;42.658;23.350;2023-07-24T05:24:42;108.87;;;101.20;;
2035;SDS011;23642;42.658;23.350;2023-07-24T05:27:20;110.13;;;102.03;;
2035;SDS011;23642;42.658;23.350;2023-07-24T05:30:00;108.07;;;100.63;;
2035;SDS011;23642;42.658;23.350;2023-07-24T05:32:31;106.13;;;98.63;;
2035;SDS011;23642;42.658;23.350;2023-07-24T05:35:01;109.63;;;101.47;;
2035;SDS011;23642;42.658;23.350;2023-07-24T05:37:32;108.67;;;101.27;;
2035;SDS011;23642;42.658;23.350;2023-07-24T05:40:01;105.43;;;98.30;;
2035;SDS011;23642;42.658;23.350;2023-07-24T05:42:28;109.10;;;101.70;;
2035;SDS011;23642;42.658;23.350;2023-07-24T05:44:55;107.70;;;100.27;;
2035;SDS011;23642;42.658;23.350;2023-07-24T05:47:29;106.53;;;98.90;;
2035;SDS011;23642;42.658;23.350;2023-07-24T05:49:58;105.93;;;98.63;;
2035;SDS011;23642;42.658;23.350;2023-07-24T05:52:34;104.97;;;97.37;;
2035;SDS011;23642;42.658;23.350;2023-07-24T05:55:18;107.57;;;99.90;;
2035;SDS011;23642;42.658;23.350;2023-07-24T05:57:48;108.30;;;101.07;;
2035;SDS011;23642;42.658;23.350;2023-07-24T06:00:19;112.17;;;104.40;;
2035;SDS011;23642;42.658;23.350;2023-07-24T06:03:01;109.87;;;102.43;;
2035;SDS011;23642;42.658;23.350;2023-07-24T06:05:32;110.00;;;102.30;;
2035;SDS011;23642;42.658;23.350;2023-07-24T06:08:00;116.53;;;108.50;;
2035;SDS011;23642;42.658;23.350;2023-07-24T06:10:32;112.43;;;105.27;;
2035;SDS011;23642;42.658;23.350;2023-07-24T06:13:01;113.10;;;105.80;;
2035;SDS011;23642;42.658;23.350;2023-07-24T06:15:28;123.17;;;115.30;;
2035;SDS011;23642;42.658;23.350;2023-07-24T06:17:55;131.70;;;123.33;;
2035;SDS011;23642;42.658;23.350;2023-07-24T06:20:22;129.83;;;121.73;;
2035;SDS011;23642;42.658;23.350;2023-07-24T06:23:04;135.73;;;127.50;;
2035;SDS011;23642;42.658;23.350;2023-07-24T06:25:46;130.87;;;122.50;;
2035;SDS011;23642;42.658;23.350;2023-07-24T06:28:22;134.87;;;126.70;;
2035;SDS011;23642;42.658;23.350;2023-07-24T06:30:51;136.90;;;127.97;;
2035;SDS011;23642;42.658;23.350;2023-07-24T06:33:20;132.87;;;124.73;;
2035;SDS011;23642;42.658;23.350;2023-07-24T06:35:48;127.23;;;119.10;;
2035;SDS011;23642;42.658;23.350;2023-07-24T06:38:23;127.37;;;119.23;;
2035;SDS011;23642;42.658;23.350;2023-07-24T06:40:52;126.53;;;118.77;;
2035;SDS011;23642;42.658;23.350;2023-07-24T06:43:20;129.47;;;121.53;;
2035;SDS011;23642;42.658;23.350;2023-07-24T06:45:53;131.43;;;122.83;;
2035;SDS011;23642;42.658;23.350;2023-07-24T06:48:23;128.67;;;120.97;;
2035;SDS011;23642;42.658;23.350;2023-07-24T06:50:53;127.63;;;118.93;;
2035;SDS011;23642;42.658;23.350;2023-07-24T06:53:27;128.80;;;120.70;;
2035;SDS011;23642;42.658;23.350;2023-07-24T06:56:00;130.50;;;121.87;;
2035;SDS011;23642;42.658;23.350;2023-07-24T06:58:28;127.37;;;119.73;;
2035;SDS011;23642;42.658;23.350;2023-07-24T07:00:55;127.93;;;120.07;;
2035;SDS011;23642;42.658;23.350;2023-07-24T07:03:26;129.50;;;121.50;;
2035;SDS011;23642;42.658;23.350;2023-07-24T07:06:04;129.03;;;121.13;;
2035;SDS011;23642;42.658;23.350;2023-07-24T07:08:47;127.40;;;119.47;;
2035;SDS011;23642;42.658;23.350;2023-07-24T07:11:35;130.60;;;122.20;;
2035;SDS011;23642;42.658;23.350;2023-07-24T07:14:09;129.60;;;121.90;;
2035;SDS011;23642;42.658;23.350;2023-07-24T07:16:50;130.37;;;122.47;;
2035;SDS011;23642;42.658;23.350;2023-07-24T07:19:17;131.37;;;123.53;;
2035;SDS011;23642;42.658;23.350;2023-07-24T07:21:47;125.23;;;117.53;;
2035;SDS011;23642;42.658;23.350;2023-07-24T07:24:22;129.00;;;121.10;;
2035;SDS011;23642;42.658;23.350;2023-07-24T07:27:03;126.13;;;118.53;;
2035;SDS011;23642;42.658;23.350;2023-07-24T07:29:33;129.63;;;121.83;;
2035;SDS011;23642;42.658;23.350;2023-07-24T07:32:06;132.93;;;124.90;;
2035;SDS011;23642;42.658;23.350;2023-07-24T07:34:40;132.30;;;124.60;;
2035;SDS011;23642;42.658;23.350;2023-07-24T07:37:13;132.20;;;124.47;;
2035;SDS011;23642;42.658;23.350;2023-07-24T07:39:43;133.87;;;125.70;;
2035;SDS011;23642;42.658;23.350;2023-07-24T07:42:15;130.73;;;122.93;;
2035;SDS011;23642;42.658;23.350;2023-07-24T07:44:42;126.83;;;119.33;;
2035;SDS011;23642;42.658;23.350;2023-07-24T07:47:17;126.03;;;118.53;;
2035;SDS011;23642;42.658;23.350;2023-07-24T07:49:49;126.87;;;118.87;;
2035;SDS011;23642;42.658;23.350;2023-07-24T07:52:17;127.27;;;119.57;;
2035;SDS011;23642;42.658;23.350;2023-07-24T07:54:48;130.37;;;122.13;;
2035;SDS011;23642;42.658;23.350;2023-07-24T07:57:16;125.17;;;117.43;;
2035;SDS011;23642;42.658;23.350;2023-07-24T07:59:45;128.07;;;120.03;;
2035;SDS011;23642;42.658;23.350;2023-07-24T08:02:15;131.60;;;123.30;;
2035;SDS011;23642;42.658;23.350;2023-07-24T08:04:43;125.53;;;118.00;;
2035;SDS011;23642;42.658;23.350;2023-07-24T08:07:10;131.87;;;123.87;;
2035;SDS011;23642;42.658;23.350;2023-07-24T08:12:27;130.23;;;122.23;;
2035;SDS011;23642;42.658;23.350;2023-07-24T08:14:57;130.47;;;122.50;;
2035;SDS011;23642;42.658;23.350;2023-07-24T08:17:24;133.63;;;125.30;;
2035;SDS011;23642;42.658;23.350;2023-07-24T08:19:54;133.20;;;124.73;;
2035;SDS011;23642;42.658;23.350;2023-07-24T08:22:24;129.63;;;121.50;;
2035;SDS011;23642;42.658;23.350;2023-07-24T08:24:53;134.60;;;122.70;;
2035;SDS011;23642;42.658;23.350;2023-07-24T08:27:35;133.17;;;124.60;;
2035;SDS011;23642;42.658;23.350;2023-07-24T08:30:20;129.90;;;122.00;;
2035;SDS011;23642;42.658;23.350;2023-07-24T08:32:47;129.77;;;121.73;;
2035;SDS011;23642;42.658;23.350;2023-07-24T08:35:18;132.57;;;124.67;;
2035;SDS011;23642;42.658;23.350;2023-07-24T08:37:48;132.37;;;124.17;;
2035;SDS011;23642;42.658;23.350;2023-07-24T08:40:17;133.50;;;125.60;;
2035;SDS011;23642;42.658;23.350;2023-07-24T08:42:44;132.17;;;124.47;;
2035;SDS011;23642;42.658;23.350;2023-07-24T08:45:31;132.53;;;124.50;;
2035;SDS011;23642;42.658;23.350;2023-07-24T08:48:02;131.47;;;123.67;;
2035;SDS011;23642;42.658;23.350;2023-07-24T08:50:31;133.70;;;125.10;;
2035;SDS011;23642;42.658;23.350;2023-07-24T08:53:24;131.10;;;122.93;;
2035;SDS011;23642;42.658;23.350;2023-07-24T08:56:05;135.70;;;127.50;;
2035;SDS011;23642;42.658;23.350;2023-07-24T08:58:34;134.20;;;126.07;;
2035;SDS011;23642;42.658;23.350;2023-07-24T09:01:04;131.93;;;124.00;;
2035;SDS011;23642;42.658;23.350;2023-07-24T09:03:35;130.90;;;123.03;;
2035;SDS011;23642;42.658;23.350;2023-07-24T09:06:04;135.97;;;127.77;;
2035;SDS011;23642;42.658;23.350;2023-07-24T09:08:34;133.80;;;125.97;;
2035;SDS011;23642;42.658;23.350;2023-07-24T09:11:16;133.83;;;125.53;;
2035;SDS011;23642;42.658;23.350;2023-07-24T09:13:50;131.93;;;123.73;;
2035;SDS011;23642;42.658;23.350;2023-07-24T09:16:27;134.03;;;126.17;;
2035;SDS011;23642;42.658;23.350;2023-07-24T09:18:56;134.17;;;125.87;;
2035;SDS011;23642;42.658;23.350;2023-07-24T09:21:40;131.97;;;124.10;;
2035;SDS011;23642;42.658;23.350;2023-07-24T09:27:24;133.23;;;124.90;;
2035;SDS011;23642;42.658;23.350;2023-07-24T09:29:59;131.33;;;123.10;;
2035;SDS011;23642;42.658;23.350;2023-07-24T09:32:32;132.73;;;124.43;;
2035;SDS011;23642;42.658;23.350;2023-07-24T09:35:04;131.90;;;123.70;;
2035;SDS011;23642;42.658;23.350;2023-07-24T09:37:42;134.00;;;125.37;;
2035;SDS011;23642;42.658;23.350;2023-07-24T09:40:14;135.27;;;127.30;;
2035;SDS011;23642;42.658;23.350;2023-07-24T09:42:48;133.00;;;124.70;;
2035;SDS011;23642;42.658;23.350;2023-07-24T09:45:16;132.67;;;124.37;;
2035;SDS011;23642;42.658;23.350;2023-07-24T09:47:43;135.70;;;127.10;;
2035;SDS011;23642;42.658;23.350;2023-07-24T09:50:15;134.73;;;126.10;;
2035;SDS011;23642;42.658;23.350;2023-07-24T09:52:55;135.43;;;126.83;;
2035;SDS011;23642;42.658;23.350;2023-07-24T09:55:29;133.57;;;124.97;;
2035;SDS011;23642;42.658;23.350;2023-07-24T09:58:11;132.47;;;124.13;;
2035;SDS011;23642;42.658;23.350;2023-07-24T10:00:42;133.70;;;125.53;;
2035;SDS011;23642;42.658;23.350;2023-07-24T10:03:11;134.70;;;125.97;;
2035;SDS011;23642;42.658;23.350;2023-07-24T10:05:39;134.77;;;125.93;;
2035;SDS011;23642;42.658;23.350;2023-07-24T10:08:16;136.17;;;127.97;;
2035;SDS011;23642;42.658;23.350;2023-07-24T10:10:44;138.17;;;129.67;;
2035;SDS011;23642;42.658;23.350;2023-07-24T10:13:16;140.93;;;131.93;;
2035;SDS011;23642;42.658;23.350;2023-07-24T10:15:49;139.87;;;131.63;;
2035;SDS011;23642;42.658;23.350;2023-07-24T10:18:17;139.27;;;130.77;;
2035;SDS011;23642;42.658;23.350;2023-07-24T10:20:59;143.47;;;134.90;;
2035;SDS011;23642;42.658;23.350;2023-07-24T10:23:36;140.20;;;131.67;;
2035;SDS011;23642;42.658;23.350;2023-07-24T10:26:11;138.43;;;129.57;;
2035;SDS011;23642;42.658;23.350;2023-07-24T10:28:42;138.10;;;129.30;;
2035;SDS011;23642;42.658;23.350;2023-07-24T10:31:24;134.70;;;126.60;;
2035;SDS011;23642;42.658;23.350;2023-07-24T10:33:59;138.90;;;130.33;;
2035;SDS011;23642;42.658;23.350;2023-07-24T10:36:35;138.93;;;130.20;;
2035;SDS011;23642;42.658;23.350;2023-07-24T10:39:13;138.27;;;129.90;;
2035;SDS011;23642;42.658;23.350;2023-07-24T10:44:41;139.80;;;130.87;;
2035;SDS011;23642;42.658;23.350;2023-07-24T10:47:20;138.90;;;130.50;;
2035;SDS011;23642;42.658;23.350;2023-07-24T10:49:56;136.97;;;128.73;;
2035;SDS011;23642;42.658;23.350;2023-07-24T10:52:27;136.37;;;127.77;;
2035;SDS011;23642;42.658;23.350;2023-07-24T10:55:06;137.87;;;129.27;;
2035;SDS011;23642;42.658;23.350;2023-07-24T10:57:35;136.13;;;127.93;;
2035;SDS011;23642;42.658;23.350;2023-07-24T11:00:09;139.50;;;130.83;;
2035;SDS011;23642;42.658;23.350;2023-07-24T11:02:41;139.10;;;130.17;;
2035;SDS011;23642;42.658;23.350;2023-07-24T11:05:08;136.17;;;126.97;;
2035;SDS011;23642;42.658;23.350;2023-07-24T11:07:39;136.57;;;128.30;;
2035;SDS011;23642;42.658;23.350;2023-07-24T11:10:18;135.87;;;127.60;;
2035;SDS011;23642;42.658;23.350;2023-07-24T11:12:48;137.57;;;129.07;;
2035;SDS011;23642;42.658;23.350;2023-07-24T11:15:43;132.80;;;124.33;;
2035;SDS011;23642;42.658;23.350;2023-07-24T11:21:22;132.87;;;124.33;;
2035;SDS011;23642;42.658;23.350;2023-07-24T11:24:06;132.40;;;124.50;;
2035;SDS011;23642;42.658;23.350;2023-07-24T11:26:40;133.50;;;125.37;;
2035;SDS011;23642;42.658;23.350;2023-07-24T11:29:10;132.90;;;124.50;;
2035;SDS011;23642;42.658;23.350;2023-07-24T11:31:55;135.43;;;126.70;;
2035;SDS011;23642;42.658;23.350;2023-07-24T11:34:31;134.10;;;126.20;;
2035;SDS011;23642;42.658;23.350;2023-07-24T11:37:40;134.17;;;125.93;;
2035;SDS011;23642;42.658;23.350;2023-07-24T11:40:19;133.10;;;125.43;;
2035;SDS011;23642;42.658;23.350;2023-07-24T11:42:49;137.20;;;128.80;;
2035;SDS011;23642;42.658;23.350;2023-07-24T11:45:21;132.93;;;125.13;;
2035;SDS011;23642;42.658;23.350;2023-07-24T11:47:52;135.83;;;127.40;;
2035;SDS011;23642;42.658;23.350;2023-07-24T11:50:21;135.17;;;127.07;;
2035;SDS011;23642;42.658;23.350;2023-07-24T11:52:54;135.80;;;127.50;;
2035;SDS011;23642;42.658;23.350;2023-07-24T11:55:32;135.83;;;127.60;;
2035;SDS011;23642;42.658;23.350;2023-07-24T11:58:02;132.87;;;124.90;;
2035;SDS011;23642;42.658;23.350;2023-07-24T12:06:49;132.40;;;124.50;;
2035;SDS011;23642;42.658;23.350;2023-07-24T12:09:57;134.60;;;125.90;;
2035;SDS011;23642;42.658;23.350;2023-07-24T12:12:25;134.10;;;126.10;;
2035;SDS011;23642;42.658;23.350;2023-07-24T12:15:21;136.73;;;128.30;;
2035;SDS011;23642;42.658;23.350;2023-07-24T12:17:51;133.43;;;125.27;;
2035;SDS011;23642;42.658;23.350;2023-07-24T12:20:31;136.90;;;128.37;;
2035;SDS011;23642;42.658;23.350;2023-07-24T12:23:07;132.20;;;124.13;;
2035;SDS011;23642;42.658;23.350;2023-07-24T12:26:01;133.37;;;125.20;;
2035;SDS011;23642;42.658;23.350;2023-07-24T12:32:44;133.93;;;125.60;;
2035;SDS011;23642;42.658;23.350;2023-07-24T12:35:30;132.80;;;124.90;;
2035;SDS011;23642;42.658;23.350;2023-07-24T12:38:14;134.67;;;126.27;;
2035;SDS011;23642;42.658;23.350;2023-07-24T12:43:48;137.07;;;128.93;;
2035;SDS011;23642;42.658;23.350;2023-07-24T12:49:25;134.93;;;126.93;;
2035;SDS011;23642;42.658;23.350;2023-07-24T12:52:11;136.77;;;128.77;;
2035;SDS011;23642;42.658;23.350;2023-07-24T12:54:48;137.17;;;128.63;;
2035;SDS011;23642;42.658;23.350;2023-07-24T12:57:16;133.10;;;125.47;;
2035;SDS011;23642;42.658;23.350;2023-07-24T12:59:51;134.37;;;126.27;;
2035;SDS011;23642;42.658;23.350;2023-07-24T13:02:20;139.90;;;131.83;;
2035;SDS011;23642;42.658;23.350;2023-07-24T13:05:25;140.93;;;132.30;;
2035;SDS011;23642;42.658;23.350;2023-07-24T13:07:59;139.20;;;130.87;;
2035;SDS011;23642;42.658;23.350;2023-07-24T13:10:34;129.50;;;121.77;;
2035;SDS011;23642;42.658;23.350;2023-07-24T13:13:12;133.30;;;124.90;;
2035;SDS011;23642;42.658;23.350;2023-07-24T13:15:39;138.73;;;130.33;;
2035;SDS011;23642;42.658;23.350;2023-07-24T13:18:08;137.57;;;129.30;;
2035;SDS011;23642;42.658;23.350;2023-07-24T13:20:51;139.07;;;130.80;;
2035;SDS011;23642;42.658;23.350;2023-07-24T13:23:50;139.83;;;131.40;;
2035;SDS011;23642;42.658;23.350;2023-07-24T13:26:28;141.87;;;133.20;;
2035;SDS011;23642;42.658;23.350;2023-07-24T13:29:33;138.10;;;129.90;;
2035;SDS011;23642;42.658;23.350;2023-07-24T13:32:10;141.20;;;132.47;;
2035;SDS011;23642;42.658;23.350;2023-07-24T13:34:38;141.13;;;132.70;;
2035;SDS011;23642;42.658;23.350;2023-07-24T13:37:06;138.37;;;129.73;;
2035;SDS011;23642;42.658;23.350;2023-07-24T13:39:35;138.33;;;130.23;;
2035;SDS011;23642;42.658;23.350;2023-07-24T13:42:05;138.03;;;129.73;;
2035;SDS011;23642;42.658;23.350;2023-07-24T13:44:38;142.40;;;133.80;;
2035;SDS011;23642;42.658;23.350;2023-07-24T13:47:09;137.93;;;130.13;;
2035;SDS011;23642;42.658;23.350;2023-07-24T13:49:37;139.47;;;130.97;;
2035;SDS011;23642;42.658;23.350;2023-07-24T13:52:16;139.90;;;131.50;;
2035;SDS011;23642;42.658;23.350;2023-07-24T13:54:44;141.37;;;132.57;;
2035;SDS011;23642;42.658;23.350;2023-07-24T13:57:16;139.87;;;130.97;;
2035;SDS011;23642;42.658;23.350;2023-07-24T13:59:57;140.37;;;132.27;;
2035;SDS011;23642;42.658;23.350;2023-07-24T14:02:25;139.70;;;131.30;;
2035;SDS011;23642;42.658;23.350;2023-07-24T14:04:56;139.83;;;131.63;;
2035;SDS011;23642;42.658;23.350;2023-07-24T14:07:26;139.43;;;131.33;;
2035;SDS011;23642;42.658;23.350;2023-07-24T14:09:59;139.77;;;131.23;;
2035;SDS011;23642;42.658;23.350;2023-07-24T14:12:49;138.40;;;130.10;;
2035;SDS011;23642;42.658;23.350;2023-07-24T14:15:19;137.90;;;129.70;;
2035;SDS011;23642;42.658;23.350;2023-07-24T14:17:57;142.20;;;133.53;;
2035;SDS011;23642;42.658;23.350;2023-07-24T14:20:31;142.23;;;134.03;;
2035;SDS011;23642;42.658;23.350;2023-07-24T14:22:59;139.90;;;131.80;;
2035;SDS011;23642;42.658;23.350;2023-07-24T14:25:30;142.60;;;134.07;;
2035;SDS011;23642;42.658;23.350;2023-07-24T14:28:02;142.37;;;133.93;;
2035;SDS011;23642;42.658;23.350;2023-07-24T14:30:42;137.57;;;129.43;;
2035;SDS011;23642;42.658;23.350;2023-07-24T14:33:10;137.33;;;129.13;;
2035;SDS011;23642;42.658;23.350;2023-07-24T14:35:37;137.20;;;128.90;;
2035;SDS011;23642;42.658;23.350;2023-07-24T14:38:12;138.07;;;130.07;;
2035;SDS011;23642;42.658;23.350;2023-07-24T14:40:43;137.80;;;129.50;;
2035;SDS011;23642;42.658;23.350;2023-07-24T14:43:15;134.93;;;126.70;;
2035;SDS011;23642;42.658;23.350;2023-07-24T14:45:44;136.03;;;128.10;;
2035;SDS011;23642;42.658;23.350;2023-07-24T14:48:15;137.37;;;129.60;;
2035;SDS011;23642;42.658;23.350;2023-07-24T14:50:42;138.83;;;130.40;;
2035;SDS011;23642;42.658;23.350;2023-07-24T14:53:10;136.17;;;127.87;;
2035;SDS011;23642;42.658;23.350;2023-07-24T14:55:44;137.60;;;129.73;;
2035;SDS011;23642;42.658;23.350;2023-07-24T14:58:27;142.20;;;133.93;;